PWSweather.com
Personal Weather Stations
Station Observations
79674
AfterstegDE 79674

AfterstegDE 79674

Lat: 47.84344, Lon: 7.92844

Elevation: 809

Station Type: Davis Vantage 2 Aktive

Latest ConditionsUpdated 4:32:06 AM GMT+01:01 Sunday, Apr 20, 2014
Currently Today's Max Today's Min Today's Average
Temperature 43.9°F6.6°C 49.3°F9.6°C 43.9°F6.6°C 48.2°F9.0°C
Dew Point 40.6°F4.8°C 44.4°F6.9°C 40.6°F4.8°C 43.6°F6.4°C
Winds 0.9 mph SE1.4 kmh SE 8.1 mph SSE13.0 kmh SSE - 3.7 mph 6.0 kmh
Wind Gusts -- 11.0 mph17.7 kmh - -
Humidity 88% 88% 82% 84%
Pressure 29.72 in1006.4 mb 29.76 in1007.8 mb 29.72 in1006.4 mb -
Hour Temp Dew Point Humidity Winds Wind Gusts Pressure Precip Precip Rate Daily Precip Total
04:32 AM 43.9°F6.6°C 40.6°F4.8°C 88% 0.9 mph SE1.4 kmh SE -- 29.72 in1006.4 mb 0.00 in0.0 mm 0.00 in/hr0.0 mm/hr 0.00 in0.0 mm
04:22 AM 44.6°F7.0°C 41.0°F5.0°C 87% 2.0 mph SE3.2 kmh SE 0.9 mph1.4 kmh 29.72 in1006.4 mb 0.00 in0.0 mm 0.00 in/hr0.0 mm/hr 0.00 in0.0 mm
04:12 AM 45.5°F7.5°C 41.9°F5.5°C 87% 0.9 mph SE1.4 kmh SE 0.9 mph1.4 kmh 29.72 in1006.4 mb 0.00 in0.0 mm 0.00 in/hr0.0 mm/hr 0.00 in0.0 mm
04:02 AM 46.6°F8.1°C 42.6°F5.9°C 86% Calm Calm -- 29.72 in1006.4 mb 0.00 in0.0 mm 0.00 in/hr0.0 mm/hr 0.00 in0.0 mm
03:52 AM 46.8°F8.2°C 42.4°F5.8°C 85% Calm Calm -- 29.72 in1006.4 mb 0.00 in0.0 mm 0.00 in/hr0.0 mm/hr 0.00 in0.0 mm
03:42 AM 47.1°F8.4°C 42.6°F5.9°C 84% 2.0 mph SE3.2 kmh SE 0.9 mph1.4 kmh 29.72 in1006.4 mb 0.00 in0.0 mm 0.00 in/hr0.0 mm/hr 0.00 in0.0 mm
03:32 AM 48.4°F9.1°C 43.5°F6.4°C 83% 2.9 mph SSW4.7 kmh SSW 0.9 mph1.4 kmh 29.72 in1006.4 mb 0.00 in0.0 mm 0.00 in/hr0.0 mm/hr 0.00 in0.0 mm
03:22 AM 48.4°F9.1°C 43.5°F6.4°C 83% 2.9 mph S4.7 kmh S 2.0 mph3.2 kmh 29.72 in1006.4 mb 0.00 in0.0 mm 0.00 in/hr0.0 mm/hr 0.00 in0.0 mm
03:12 AM 48.6°F9.2°C 43.7°F6.5°C 83% 2.0 mph SW3.2 kmh SW 2.9 mph4.7 kmh 29.72 in1006.4 mb 0.00 in0.0 mm 0.00 in/hr0.0 mm/hr 0.00 in0.0 mm
03:02 AM 48.7°F9.3°C 43.5°F6.4°C 82% 2.0 mph ESE3.2 kmh ESE 2.0 mph3.2 kmh 29.72 in1006.4 mb 0.00 in0.0 mm 0.00 in/hr0.0 mm/hr 0.00 in0.0 mm
02:52 AM 48.9°F9.4°C 44.1°F6.7°C 83% 2.0 mph SSW3.2 kmh SSW 2.9 mph4.7 kmh 29.72 in1006.4 mb 0.00 in0.0 mm 0.00 in/hr0.0 mm/hr 0.00 in0.0 mm
02:42 AM 48.9°F9.4°C 44.1°F6.7°C 83% 2.9 mph SW4.7 kmh SW 4.0 mph6.4 kmh 29.72 in1006.4 mb 0.00 in0.0 mm 0.00 in/hr0.0 mm/hr 0.00 in0.0 mm
02:32 AM 48.9°F9.4°C 44.1°F6.7°C 83% 2.0 mph SSE3.2 kmh SSE 2.9 mph4.7 kmh 29.72 in1006.4 mb 0.00 in0.0 mm 0.00 in/hr0.0 mm/hr 0.00 in0.0 mm
02:22 AM 49.1°F9.5°C 44.2°F6.8°C 83% 4.0 mph WSW6.4 kmh WSW 2.0 mph3.2 kmh 29.73 in1006.8 mb 0.00 in0.0 mm 0.00 in/hr0.0 mm/hr 0.00 in0.0 mm
02:12 AM 49.3°F9.6°C 44.4°F6.9°C 83% 2.9 mph SE4.7 kmh SE 0.9 mph1.4 kmh 29.73 in1006.8 mb 0.00 in0.0 mm 0.00 in/hr0.0 mm/hr 0.00 in0.0 mm
02:02 AM 49.3°F9.6°C 44.4°F6.9°C 83% 4.9 mph SSW7.9 kmh SSW 2.0 mph3.2 kmh 29.73 in1006.8 mb 0.00 in0.0 mm 0.00 in/hr0.0 mm/hr 0.00 in0.0 mm
01:52 AM 49.3°F9.6°C 44.4°F6.9°C 83% 6.9 mph S11.1 kmh S 4.9 mph7.9 kmh 29.73 in1006.8 mb 0.00 in0.0 mm 0.00 in/hr0.0 mm/hr 0.00 in0.0 mm
01:42 AM 49.3°F9.6°C 44.4°F6.9°C 83% 8.1 mph SSE13.0 kmh SSE 6.0 mph9.7 kmh 29.73 in1006.8 mb 0.00 in0.0 mm 0.00 in/hr0.0 mm/hr 0.00 in0.0 mm
01:32 AM 49.3°F9.6°C 44.4°F6.9°C 83% 4.9 mph SSW7.9 kmh SSW 11.0 mph17.7 kmh 29.73 in1006.8 mb 0.00 in0.0 mm 0.00 in/hr0.0 mm/hr 0.00 in0.0 mm
01:22 AM 48.9°F9.4°C 44.1°F6.7°C 83% 4.9 mph S7.9 kmh S 2.9 mph4.7 kmh 29.73 in1006.8 mb 0.00 in0.0 mm 0.00 in/hr0.0 mm/hr 0.00 in0.0 mm
01:12 AM 48.7°F9.3°C 43.9°F6.6°C 83% 4.9 mph SSW7.9 kmh SSW 2.0 mph3.2 kmh 29.74 in1007.1 mb 0.00 in0.0 mm 0.00 in/hr0.0 mm/hr 0.00 in0.0 mm
01:02 AM 48.7°F9.3°C 43.9°F6.6°C 83% 6.0 mph S9.7 kmh S 8.1 mph13.0 kmh 29.74 in1007.1 mb 0.00 in0.0 mm 0.00 in/hr0.0 mm/hr 0.00 in0.0 mm
12:52 AM 48.7°F9.3°C 43.9°F6.6°C 83% 6.0 mph S9.7 kmh S 6.0 mph9.7 kmh 29.75 in1007.5 mb 0.00 in0.0 mm 0.00 in/hr0.0 mm/hr 0.00 in0.0 mm
12:42 AM 48.7°F9.3°C 43.9°F6.6°C 83% 6.0 mph SSW9.7 kmh SSW 8.1 mph13.0 kmh 29.75 in1007.5 mb 0.00 in0.0 mm 0.00 in/hr0.0 mm/hr 0.00 in0.0 mm
12:32 AM 48.7°F9.3°C 44.1°F6.7°C 84% 6.0 mph E9.7 kmh E 2.0 mph3.2 kmh 29.75 in1007.5 mb 0.00 in0.0 mm 0.00 in/hr0.0 mm/hr 0.00 in0.0 mm
12:22 AM 48.7°F9.3°C 44.1°F6.7°C 84% 6.0 mph S9.7 kmh S 8.1 mph13.0 kmh 29.75 in1007.5 mb 0.00 in0.0 mm 0.00 in/hr0.0 mm/hr 0.00 in0.0 mm
12:12 AM 48.6°F9.2°C 43.9°F6.6°C 84% 4.0 mph SW6.4 kmh SW 6.9 mph11.1 kmh 29.76 in1007.8 mb 0.00 in0.0 mm 0.00 in/hr0.0 mm/hr 0.00 in0.0 mm
12:02 AM 48.7°F9.3°C 44.1°F6.7°C 84% 6.0 mph S9.7 kmh S 2.0 mph3.2 kmh 29.76 in1007.8 mb 0.00 in0.0 mm 0.00 in/hr0.0 mm/hr 0.00 in0.0 mm